createdAt,value
2024-01-06T00:02:04.807Z,-3.29
2024-01-06T00:10:29.250Z,-3.29
2024-01-06T00:18:58.080Z,-3.31
2024-01-06T00:27:23.270Z,-3.28
2024-01-06T00:35:48.784Z,-3.27
2024-01-06T00:44:13.515Z,-3.25
2024-01-06T00:52:41.011Z,-3.23
2024-01-06T01:01:07.026Z,-3.18
2024-01-06T01:09:31.667Z,-3.18
2024-01-06T01:17:55.582Z,-3.17
2024-01-06T01:26:19.801Z,-3.16
2024-01-06T01:34:44.221Z,-3.12
2024-01-06T01:43:16.903Z,-3.14
2024-01-06T01:51:44.634Z,-3.19
2024-01-06T02:00:16.386Z,-3.25
2024-01-06T02:08:41.017Z,-3.28
2024-01-06T02:17:06.783Z,-3.31
2024-01-06T02:25:31.654Z,-3.32
2024-01-06T02:33:56.982Z,-3.37
2024-01-06T02:42:45.807Z,-3.40
2024-01-06T02:51:11.965Z,-3.43
2024-01-06T02:59:37.246Z,-3.43
2024-01-06T03:08:02.226Z,-3.45
2024-01-06T03:16:26.801Z,-3.47
2024-01-06T03:24:51.965Z,-3.50
2024-01-06T03:33:17.681Z,-3.51
2024-01-06T03:41:43.860Z,-3.51
2024-01-06T03:50:09.082Z,-3.49
2024-01-06T03:58:34.595Z,-3.49
2024-01-06T04:06:58.873Z,-3.47
2024-01-06T04:15:23.686Z,-3.49
2024-01-06T04:23:48.946Z,-3.48
2024-01-06T04:32:12.470Z,-3.50
2024-01-06T04:40:36.590Z,-3.49
2024-01-06T04:49:01.759Z,-3.51
2024-01-06T04:57:26.417Z,-3.50
2024-01-06T05:05:51.119Z,-3.48
2024-01-06T05:14:14.542Z,-3.47
2024-01-06T05:22:38.790Z,-3.45
2024-01-06T05:31:04.699Z,-3.44
2024-01-06T05:39:33.831Z,-3.43
2024-01-06T05:47:57.342Z,-3.43
2024-01-06T05:56:27.415Z,-3.43
2024-01-06T06:04:54.423Z,-3.42
2024-01-06T06:13:21.289Z,-3.42
2024-01-06T06:21:47.643Z,-3.43
2024-01-06T06:30:15.063Z,-3.42
2024-01-06T06:38:40.956Z,-3.42
2024-01-06T06:47:05.483Z,-3.41
2024-01-06T06:55:29.483Z,-3.43
2024-01-06T07:03:53.711Z,-3.41
2024-01-06T07:12:20.723Z,-3.40
2024-01-06T07:20:45.217Z,-3.39
2024-01-06T07:29:12.519Z,-3.32
2024-01-06T07:37:36.734Z,-3.22
2024-01-06T07:46:05.020Z,-3.14
2024-01-06T07:54:30.671Z,-3.04
2024-01-06T08:02:57.479Z,-3.00
2024-01-06T08:11:23.560Z,-2.94
2024-01-06T08:19:49.489Z,-2.92
2024-01-06T08:28:15.994Z,-2.88
2024-01-06T08:36:42.530Z,-2.83
2024-01-06T08:45:07.078Z,-2.78
2024-01-06T08:53:33.482Z,-2.65
2024-01-06T09:01:58.283Z,-2.56
2024-01-06T09:10:23.216Z,-2.51
2024-01-06T09:18:49.226Z,-2.42
2024-01-06T09:27:14.221Z,-2.41
2024-01-06T09:35:40.790Z,-2.39
2024-01-06T09:44:05.942Z,-2.45
2024-01-06T09:52:33.762Z,-2.42
2024-01-06T10:01:00.761Z,-2.39
2024-01-06T10:09:29.525Z,-2.34
2024-01-06T10:17:55.922Z,-2.33
2024-01-06T10:26:21.724Z,-2.34
2024-01-06T10:34:47.829Z,-2.47
2024-01-06T10:43:13.060Z,-2.52
2024-01-06T10:51:39.226Z,-2.45
2024-01-06T11:00:06.858Z,-2.39
2024-01-06T11:08:34.954Z,-2.37
2024-01-06T11:16:59.099Z,-2.33
2024-01-06T11:25:24.299Z,-2.34
2024-01-06T11:33:52.496Z,-2.35
2024-01-06T11:42:17.873Z,-2.45
2024-01-06T11:50:43.767Z,-2.50
2024-01-06T11:59:07.862Z,-2.51
2024-01-06T12:07:35.541Z,-2.52
2024-01-06T12:16:02.643Z,-2.52
2024-01-06T12:24:29.664Z,-2.52
2024-01-06T12:32:54.020Z,-2.56
2024-01-06T12:41:20.010Z,-2.60
2024-01-06T12:49:47.487Z,-2.57
2024-01-06T12:58:13.417Z,-2.60
2024-01-06T13:06:38.550Z,-2.60
2024-01-06T13:15:02.807Z,-2.70
2024-01-06T13:23:30.240Z,-2.81
2024-01-06T13:31:56.270Z,-2.88
2024-01-06T13:40:21.205Z,-2.87
2024-01-06T13:48:48.483Z,-2.89
2024-01-06T13:57:12.429Z,-2.89
2024-01-06T14:05:39.727Z,-2.96
2024-01-06T14:14:04.061Z,-3.04
2024-01-06T14:22:27.744Z,-3.10
2024-01-06T14:30:55.282Z,-3.14
2024-01-06T14:39:23.113Z,-3.18
2024-01-06T14:47:49.851Z,-3.25
2024-01-06T14:56:15.654Z,-3.25
2024-01-06T15:04:40.292Z,-3.28
2024-01-06T15:13:06.291Z,-3.36
2024-01-06T15:21:34.844Z,-3.40
2024-01-06T15:29:59.255Z,-3.40
2024-01-06T15:38:24.202Z,-3.41
2024-01-06T15:46:49.252Z,-3.43
2024-01-06T15:55:13.718Z,-3.47
2024-01-06T16:03:38.444Z,-3.48
2024-01-06T16:12:05.417Z,-3.53
2024-01-06T16:20:30.254Z,-3.57
2024-01-06T16:28:54.345Z,-3.60
2024-01-06T16:37:18.940Z,-3.60
2024-01-06T16:45:45.851Z,-3.60
2024-01-06T16:54:10.116Z,-3.62
2024-01-06T17:02:35.776Z,-3.62
2024-01-06T17:10:59.992Z,-3.66
2024-01-06T17:19:23.705Z,-3.66
2024-01-06T17:27:49.234Z,-3.67
2024-01-06T17:36:15.398Z,-3.70
2024-01-06T17:44:44.293Z,-3.76
2024-01-06T17:53:08.471Z,-3.81
2024-01-06T18:01:33.341Z,-3.85
2024-01-06T18:09:57.978Z,-3.90
2024-01-06T18:18:22.564Z,-3.95
2024-01-06T18:26:49.383Z,-3.98
2024-01-06T18:35:15.535Z,-4.07
2024-01-06T18:43:41.122Z,-4.11
2024-01-06T18:52:07.221Z,-4.14
2024-01-06T19:00:32.779Z,-4.17
2024-01-06T19:08:57.504Z,-4.21
2024-01-06T19:17:25.678Z,-4.26
2024-01-06T19:25:53.190Z,-4.25
2024-01-06T19:34:18.431Z,-4.29
2024-01-06T19:42:45.536Z,-4.33
2024-01-06T19:51:09.614Z,-4.36
2024-01-06T19:59:33.929Z,-4.37
2024-01-06T20:07:59.234Z,-4.39
2024-01-06T20:16:23.682Z,-4.40
2024-01-06T20:24:47.124Z,-4.44
2024-01-06T20:33:11.683Z,-4.49
2024-01-06T20:41:36.950Z,-4.54
2024-01-06T20:50:02.278Z,-4.60
2024-01-06T20:58:27.492Z,-4.70
2024-01-06T21:06:53.744Z,-4.76
2024-01-06T21:15:19.345Z,-4.83
2024-01-06T21:23:48.561Z,-4.86
2024-01-06T21:32:18.911Z,-4.91
2024-01-06T21:40:48.140Z,-4.98
2024-01-06T21:49:12.088Z,-5.00
2024-01-06T21:57:36.739Z,-5.10
2024-01-06T22:06:02.468Z,-5.15
2024-01-06T22:14:25.649Z,-5.20
2024-01-06T22:22:51.609Z,-5.23
2024-01-06T22:31:18.643Z,-5.29
2024-01-06T22:39:53.793Z,-5.34
2024-01-06T22:48:19.097Z,-5.40
2024-01-06T22:56:45.023Z,-5.45
2024-01-06T23:05:10.013Z,-5.51
2024-01-06T23:13:34.655Z,-5.51
2024-01-06T23:22:00.252Z,-5.54
2024-01-06T23:30:24.829Z,-5.59
2024-01-06T23:38:48.899Z,-5.67
2024-01-06T23:47:16.422Z,-5.75
2024-01-06T23:55:45.322Z,-5.79
